sensor_id;sensor_type;location;lat;lon;timestamp;pressure;altitude;pressure_sealevel;temperature;humidity
32237;BME280;18726;44.732;10.550;2023-03-11T00:02:11;99309.84;;;14.28;71.39
32237;BME280;18726;44.732;10.550;2023-03-11T00:05:16;99294.31;;;14.17;69.45
32237;BME280;18726;44.732;10.550;2023-03-11T00:08:21;99292.84;;;14.09;72.61
32237;BME280;18726;44.732;10.550;2023-03-11T00:11:25;99295.16;;;14.14;70.28
32237;BME280;18726;44.732;10.550;2023-03-11T00:14:29;99280.41;;;14.05;65.43
32237;BME280;18726;44.732;10.550;2023-03-11T00:17:33;99282.75;;;14.03;61.50
32237;BME280;18726;44.732;10.550;2023-03-11T00:20:37;99279.56;;;14.11;63.17
32237;BME280;18726;44.732;10.550;2023-03-11T00:23:44;99299.78;;;14.17;59.48
32237;BME280;18726;44.732;10.550;2023-03-11T00:26:48;99301.34;;;14.18;59.85
32237;BME280;18726;44.732;10.550;2023-03-11T00:29:52;99288.13;;;14.13;62.57
32237;BME280;18726;44.732;10.550;2023-03-11T00:32:56;99288.19;;;14.06;64.18
32237;BME280;18726;44.732;10.550;2023-03-11T00:36:00;99298.41;;;13.99;67.50
32237;BME280;18726;44.732;10.550;2023-03-11T00:39:04;99292.53;;;14.00;65.72
32237;BME280;18726;44.732;10.550;2023-03-11T00:42:08;99294.50;;;14.00;76.63
32237;BME280;18726;44.732;10.550;2023-03-11T00:45:12;99298.31;;;14.09;100.00
32237;BME280;18726;44.732;10.550;2023-03-11T00:48:15;99296.00;;;14.04;96.54
32237;BME280;18726;44.732;10.550;2023-03-11T00:51:19;99293.75;;;13.96;93.51
32237;BME280;18726;44.732;10.550;2023-03-11T00:54:22;99304.75;;;13.85;80.56
32237;BME280;18726;44.732;10.550;2023-03-11T00:57:26;99313.00;;;13.78;76.19
32237;BME280;18726;44.732;10.550;2023-03-11T01:00:32;99310.31;;;13.71;77.64
32237;BME280;18726;44.732;10.550;2023-03-11T01:03:36;99300.97;;;13.68;80.15
32237;BME280;18726;44.732;10.550;2023-03-11T01:06:40;99311.09;;;13.71;86.06
32237;BME280;18726;44.732;10.550;2023-03-11T01:09:43;99304.97;;;13.57;72.17
32237;BME280;18726;44.732;10.550;2023-03-11T01:12:46;99308.91;;;13.48;72.17
32237;BME280;18726;44.732;10.550;2023-03-11T01:15:50;99305.78;;;13.46;76.26
32237;BME280;18726;44.732;10.550;2023-03-11T01:18:54;99296.41;;;13.55;75.59
32237;BME280;18726;44.732;10.550;2023-03-11T01:21:58;99299.00;;;13.72;94.73
32237;BME280;18726;44.732;10.550;2023-03-11T01:25:01;99297.47;;;13.64;77.04
32237;BME280;18726;44.732;10.550;2023-03-11T01:28:06;99290.06;;;13.65;79.71
32237;BME280;18726;44.732;10.550;2023-03-11T01:31:13;99272.16;;;13.64;80.05
32237;BME280;18726;44.732;10.550;2023-03-11T01:34:17;99262.41;;;13.63;75.21
32237;BME280;18726;44.732;10.550;2023-03-11T01:37:20;99262.84;;;13.58;72.67
32237;BME280;18726;44.732;10.550;2023-03-11T01:40:37;99262.84;;;13.58;72.00
32237;BME280;18726;44.732;10.550;2023-03-11T01:50:01;99219.13;;;13.65;78.31
32237;BME280;18726;44.732;10.550;2023-03-11T01:53:05;99220.00;;;13.55;70.17
32237;BME280;18726;44.732;10.550;2023-03-11T01:56:09;99213.38;;;13.56;64.76
32237;BME280;18726;44.732;10.550;2023-03-11T01:59:15;99216.44;;;13.58;61.86
32237;BME280;18726;44.732;10.550;2023-03-11T02:02:23;99219.13;;;13.65;61.36
32237;BME280;18726;44.732;10.550;2023-03-11T02:05:28;99222.19;;;13.74;63.06
32237;BME280;18726;44.732;10.550;2023-03-11T02:08:32;99236.56;;;13.78;61.38
32237;BME280;18726;44.732;10.550;2023-03-11T02:11:37;99250.22;;;13.78;57.94
32237;BME280;18726;44.732;10.550;2023-03-11T02:14:44;99248.63;;;13.84;59.88
32237;BME280;18726;44.732;10.550;2023-03-11T02:17:49;99235.75;;;13.84;58.75
32237;BME280;18726;44.732;10.550;2023-03-11T02:24:24;99183.91;;;13.81;59.11
32237;BME280;18726;44.732;10.550;2023-03-11T02:27:33;99186.66;;;13.81;57.91
32237;BME280;18726;44.732;10.550;2023-03-11T02:30:41;99186.97;;;13.86;56.88
32237;BME280;18726;44.732;10.550;2023-03-11T02:33:46;99179.19;;;13.85;58.03
32237;BME280;18726;44.732;10.550;2023-03-11T02:36:52;99186.19;;;13.86;60.72
32237;BME280;18726;44.732;10.550;2023-03-11T02:40:19;99191.72;;;13.79;56.76
32237;BME280;18726;44.732;10.550;2023-03-11T02:43:42;99184.31;;;13.79;63.08
32237;BME280;18726;44.732;10.550;2023-03-11T02:46:45;99193.34;;;13.73;62.65
32237;BME280;18726;44.732;10.550;2023-03-11T02:49:49;99201.22;;;13.64;62.06
32237;BME280;18726;44.732;10.550;2023-03-11T02:52:53;99189.53;;;13.60;66.23
32237;BME280;18726;44.732;10.550;2023-03-11T02:55:58;99182.66;;;13.48;60.51
32237;BME280;18726;44.732;10.550;2023-03-11T02:59:04;99174.84;;;13.46;65.18
32237;BME280;18726;44.732;10.550;2023-03-11T03:02:08;99187.75;;;13.42;64.36
32237;BME280;18726;44.732;10.550;2023-03-11T03:05:12;99182.75;;;13.30;61.78
32237;BME280;18726;44.732;10.550;2023-03-11T03:08:15;99198.41;;;13.26;66.35
32237;BME280;18726;44.732;10.550;2023-03-11T03:11:19;99203.91;;;13.19;61.89
32237;BME280;18726;44.732;10.550;2023-03-11T03:14:23;99199.25;;;13.16;62.81
32237;BME280;18726;44.732;10.550;2023-03-11T03:17:27;99199.22;;;13.12;64.52
32237;BME280;18726;44.732;10.550;2023-03-11T03:20:30;99183.31;;;13.04;63.86
32237;BME280;18726;44.732;10.550;2023-03-11T03:23:37;99199.28;;;13.02;62.20
32237;BME280;18726;44.732;10.550;2023-03-11T03:26:40;99203.16;;;13.08;62.02
32237;BME280;18726;44.732;10.550;2023-03-11T03:29:44;99197.66;;;13.18;70.43
32237;BME280;18726;44.732;10.550;2023-03-11T03:32:48;99219.47;;;13.18;66.10
32237;BME280;18726;44.732;10.550;2023-03-11T03:35:54;99224.53;;;13.13;62.84
32237;BME280;18726;44.732;10.550;2023-03-11T03:39:02;99221.44;;;13.18;62.30
32237;BME280;18726;44.732;10.550;2023-03-11T03:42:10;99216.34;;;13.20;62.80
32237;BME280;18726;44.732;10.550;2023-03-11T03:45:17;99212.84;;;13.23;62.63
32237;BME280;18726;44.732;10.550;2023-03-11T03:48:21;99195.69;;;13.23;63.35
32237;BME280;18726;44.732;10.550;2023-03-11T03:51:25;99181.22;;;13.29;60.75
32237;BME280;18726;44.732;10.550;2023-03-11T03:54:48;99183.47;;;13.41;62.76
32237;BME280;18726;44.732;10.550;2023-03-11T03:57:52;99184.19;;;13.49;63.14
32237;BME280;18726;44.732;10.550;2023-03-11T04:00:59;99170.56;;;13.49;61.26
32237;BME280;18726;44.732;10.550;2023-03-11T04:04:03;99178.34;;;13.50;59.96
32237;BME280;18726;44.732;10.550;2023-03-11T04:07:07;99188.78;;;13.59;59.75
32237;BME280;18726;44.732;10.550;2023-03-11T04:10:12;99197.31;;;13.65;58.81
32237;BME280;18726;44.732;10.550;2023-03-11T04:13:15;99202.31;;;13.70;58.94
32237;BME280;18726;44.732;10.550;2023-03-11T04:16:21;99199.59;;;13.70;58.14
32237;BME280;18726;44.732;10.550;2023-03-11T04:19:27;99207.72;;;13.77;58.03
32237;BME280;18726;44.732;10.550;2023-03-11T04:22:31;99207.38;;;13.71;59.18
32237;BME280;18726;44.732;10.550;2023-03-11T04:25:35;99207.03;;;13.66;61.54
32237;BME280;18726;44.732;10.550;2023-03-11T04:28:39;99190.63;;;13.69;59.92
32237;BME280;18726;44.732;10.550;2023-03-11T04:31:42;99191.78;;;13.72;63.06
32237;BME280;18726;44.732;10.550;2023-03-11T04:34:47;99201.22;;;13.64;59.32
32237;BME280;18726;44.732;10.550;2023-03-11T04:37:52;99212.91;;;13.61;58.93
32237;BME280;18726;44.732;10.550;2023-03-11T04:40:59;99196.94;;;13.63;58.01
32237;BME280;18726;44.732;10.550;2023-03-11T04:44:02;99191.03;;;13.68;58.51
32237;BME280;18726;44.732;10.550;2023-03-11T04:47:06;99190.22;;;13.74;58.03
32237;BME280;18726;44.732;10.550;2023-03-11T04:50:10;99205.47;;;13.68;59.48
32237;BME280;18726;44.732;10.550;2023-03-11T04:53:14;99213.66;;;13.65;60.47
32237;BME280;18726;44.732;10.550;2023-03-11T04:56:18;99219.63;;;13.52;62.13
32237;BME280;18726;44.732;10.550;2023-03-11T04:59:22;99225.56;;;13.40;63.46
32237;BME280;18726;44.732;10.550;2023-03-11T05:02:28;99217.84;;;13.28;64.97
32237;BME280;18726;44.732;10.550;2023-03-11T05:05:36;99203.50;;;13.17;65.90
32237;BME280;18726;44.732;10.550;2023-03-11T05:08:40;99193.00;;;13.08;64.49
32237;BME280;18726;44.732;10.550;2023-03-11T05:11:44;99189.22;;;12.95;64.79
32237;BME280;18726;44.732;10.550;2023-03-11T05:14:49;99169.69;;;13.00;64.53
32237;BME280;18726;44.732;10.550;2023-03-11T05:17:52;99160.34;;;13.01;64.83
32237;BME280;18726;44.732;10.550;2023-03-11T05:20:57;99160.00;;;12.99;64.34
32237;BME280;18726;44.732;10.550;2023-03-11T05:24:03;99170.13;;;12.99;64.04
32237;BME280;18726;44.732;10.550;2023-03-11T05:27:08;99165.84;;;12.98;64.54
32237;BME280;18726;44.732;10.550;2023-03-11T05:30:14;99159.63;;;12.94;64.70
32237;BME280;18726;44.732;10.550;2023-03-11T05:33:19;99141.78;;;12.85;65.66
32237;BME280;18726;44.732;10.550;2023-03-11T05:36:23;99125.41;;;12.85;64.50
32237;BME280;18726;44.732;10.550;2023-03-11T05:39:27;99110.19;;;12.92;64.93
32237;BME280;18726;44.732;10.550;2023-03-11T05:42:31;99088.78;;;12.94;65.51
32237;BME280;18726;44.732;10.550;2023-03-11T05:45:34;99080.63;;;12.90;66.41
32237;BME280;18726;44.732;10.550;2023-03-11T05:48:38;99109.06;;;12.85;67.95
32237;BME280;18726;44.732;10.550;2023-03-11T05:51:41;99130.84;;;12.89;68.88
32237;BME280;18726;44.732;10.550;2023-03-11T05:54:50;99154.97;;;12.91;69.85
32237;BME280;18726;44.732;10.550;2023-03-11T05:57:57;99179.56;;;13.42;71.40
32237;BME280;18726;44.732;10.550;2023-03-11T06:01:06;99202.88;;;13.50;74.34
32237;BME280;18726;44.732;10.550;2023-03-11T06:04:09;99220.25;;;13.19;72.34
32237;BME280;18726;44.732;10.550;2023-03-11T06:07:13;99238.03;;;13.41;82.04
32237;BME280;18726;44.732;10.550;2023-03-11T06:10:20;99237.38;;;14.88;80.36
32237;BME280;18726;44.732;10.550;2023-03-11T06:13:23;99254.03;;;15.81;68.01
32237;BME280;18726;44.732;10.550;2023-03-11T06:16:29;99247.31;;;17.08;66.75
32237;BME280;18726;44.732;10.550;2023-03-11T06:19:36;99233.88;;;19.36;60.96
32237;BME280;18726;44.732;10.550;2023-03-11T06:22:39;99217.28;;;20.77;50.68
32237;BME280;18726;44.732;10.550;2023-03-11T06:25:44;99199.00;;;21.33;47.12
32237;BME280;18726;44.732;10.550;2023-03-11T06:28:48;99164.44;;;19.66;47.13
32237;BME280;18726;44.732;10.550;2023-03-11T06:31:52;99131.06;;;17.96;51.80
32237;BME280;18726;44.732;10.550;2023-03-11T06:34:56;99133.94;;;16.59;57.44
32237;BME280;18726;44.732;10.550;2023-03-11T06:37:59;99142.00;;;15.67;63.01
32237;BME280;18726;44.732;10.550;2023-03-11T06:41:03;99153.94;;;15.03;69.91
32237;BME280;18726;44.732;10.550;2023-03-11T06:44:09;99184.66;;;14.87;70.58
32237;BME280;18726;44.732;10.550;2023-03-11T06:47:13;99199.09;;;14.88;72.62
32237;BME280;18726;44.732;10.550;2023-03-11T06:50:16;99203.19;;;15.57;70.88
32237;BME280;18726;44.732;10.550;2023-03-11T06:53:19;99219.03;;;15.42;70.88
32237;BME280;18726;44.732;10.550;2023-03-11T06:56:23;99226.38;;;15.22;73.30
32237;BME280;18726;44.732;10.550;2023-03-11T06:59:35;99228.09;;;15.62;77.32
32237;BME280;18726;44.732;10.550;2023-03-11T07:02:40;99206.88;;;15.70;76.56
32237;BME280;18726;44.732;10.550;2023-03-11T07:05:43;99198.44;;;15.84;81.00
32237;BME280;18726;44.732;10.550;2023-03-11T07:08:49;99202.59;;;20.02;62.21
32237;BME280;18726;44.732;10.550;2023-03-11T07:11:53;99204.56;;;24.35;48.39
32237;BME280;18726;44.732;10.550;2023-03-11T07:15:04;99202.38;;;24.15;44.11
32237;BME280;18726;44.732;10.550;2023-03-11T07:18:10;99217.88;;;25.69;41.98
32237;BME280;18726;44.732;10.550;2023-03-11T07:21:15;99238.81;;;28.14;37.95
32237;BME280;18726;44.732;10.550;2023-03-11T07:24:19;99237.69;;;28.48;33.86
32237;BME280;18726;44.732;10.550;2023-03-11T07:27:23;99246.09;;;28.71;33.58
32237;BME280;18726;44.732;10.550;2023-03-11T07:30:27;99263.88;;;28.56;33.60
32237;BME280;18726;44.732;10.550;2023-03-11T07:33:30;99266.16;;;28.58;33.67
32237;BME280;18726;44.732;10.550;2023-03-11T07:36:34;99276.66;;;30.38;30.50
32237;BME280;18726;44.732;10.550;2023-03-11T07:39:38;99283.56;;;30.37;28.42
32237;BME280;18726;44.732;10.550;2023-03-11T07:42:41;99274.31;;;30.95;28.66
32237;BME280;18726;44.732;10.550;2023-03-11T07:45:45;99278.41;;;31.29;27.00
32237;BME280;18726;44.732;10.550;2023-03-11T07:48:49;99278.16;;;32.49;25.71
32237;BME280;18726;44.732;10.550;2023-03-11T07:51:52;99274.75;;;32.13;27.25
32237;BME280;18726;44.732;10.550;2023-03-11T07:54:55;99276.09;;;31.58;25.39
32237;BME280;18726;44.732;10.550;2023-03-11T07:58:00;99275.75;;;31.07;26.35
32237;BME280;18726;44.732;10.550;2023-03-11T08:01:05;99263.75;;;31.72;27.43
32237;BME280;18726;44.732;10.550;2023-03-11T08:04:09;99266.06;;;31.92;26.08
32237;BME280;18726;44.732;10.550;2023-03-11T08:07:14;99272.00;;;31.59;26.66
32237;BME280;18726;44.732;10.550;2023-03-11T08:10:17;99260.09;;;31.77;27.31
32237;BME280;18726;44.732;10.550;2023-03-11T08:13:20;99271.75;;;30.97;26.86
32237;BME280;18726;44.732;10.550;2023-03-11T08:16:24;99267.19;;;30.94;25.25
32237;BME280;18726;44.732;10.550;2023-03-11T08:19:28;99273.44;;;31.71;25.45
32237;BME280;18726;44.732;10.550;2023-03-11T08:22:31;99265.78;;;32.14;24.76
32237;BME280;18726;44.732;10.550;2023-03-11T08:25:37;99274.66;;;32.24;26.02
32237;BME280;18726;44.732;10.550;2023-03-11T08:28:40;99272.22;;;32.90;25.18
32237;BME280;18726;44.732;10.550;2023-03-11T08:31:44;99272.88;;;33.28;25.25
32237;BME280;18726;44.732;10.550;2023-03-11T08:34:47;99284.44;;;33.70;24.55
32237;BME280;18726;44.732;10.550;2023-03-11T08:37:50;99293.59;;;34.02;24.94
32237;BME280;18726;44.732;10.550;2023-03-11T08:40:54;99292.28;;;34.03;24.19
32237;BME280;18726;44.732;10.550;2023-03-11T08:43:58;99288.41;;;35.42;22.89
32237;BME280;18726;44.732;10.550;2023-03-11T08:47:01;99284.66;;;35.06;23.33
32237;BME280;18726;44.732;10.550;2023-03-11T08:50:06;99294.44;;;35.26;22.83
32237;BME280;18726;44.732;10.550;2023-03-11T08:53:10;99294.56;;;35.62;23.27
32237;BME280;18726;44.732;10.550;2023-03-11T08:56:14;99299.00;;;36.78;21.21
32237;BME280;18726;44.732;10.550;2023-03-11T08:59:17;99298.53;;;36.59;21.79
32237;BME280;18726;44.732;10.550;2023-03-11T09:02:20;99292.97;;;36.97;22.63
32237;BME280;18726;44.732;10.550;2023-03-11T09:05:23;99284.69;;;37.91;20.89
32237;BME280;18726;44.732;10.550;2023-03-11T09:08:27;99270.34;;;36.97;21.02
32237;BME280;18726;44.732;10.550;2023-03-11T09:11:30;99267.44;;;36.23;21.23
32237;BME280;18726;44.732;10.550;2023-03-11T09:14:34;99260.06;;;36.71;21.03
32237;BME280;18726;44.732;10.550;2023-03-11T09:17:40;99249.94;;;37.60;21.90
32237;BME280;18726;44.732;10.550;2023-03-11T09:20:44;99260.06;;;38.16;21.41
32237;BME280;18726;44.732;10.550;2023-03-11T09:23:48;99257.31;;;39.06;21.80
32237;BME280;18726;44.732;10.550;2023-03-11T09:26:51;99260.56;;;39.69;20.92
32237;BME280;18726;44.732;10.550;2023-03-11T09:29:55;99260.91;;;40.69;19.46
32237;BME280;18726;44.732;10.550;2023-03-11T09:32:58;99242.06;;;39.61;20.40
32237;BME280;18726;44.732;10.550;2023-03-11T09:36:05;99229.16;;;37.57;19.20
32237;BME280;18726;44.732;10.550;2023-03-11T09:39:10;99236.34;;;35.87;20.72
32237;BME280;18726;44.732;10.550;2023-03-11T09:42:36;99246.50;;;36.18;22.43
32237;BME280;18726;44.732;10.550;2023-03-11T09:45:37;99244.50;;;36.27;21.68
32237;BME280;18726;44.732;10.550;2023-03-11T09:48:54;99233.72;;;35.11;22.48
32237;BME280;18726;44.732;10.550;2023-03-11T09:52:09;99222.22;;;33.28;24.19
32237;BME280;18726;44.732;10.550;2023-03-11T10:01:29;99210.81;;;32.75;26.79
32237;BME280;18726;44.732;10.550;2023-03-11T10:04:40;99229.03;;;32.12;24.88
32237;BME280;18726;44.732;10.550;2023-03-11T10:07:46;99230.81;;;31.91;26.76
32237;BME280;18726;44.732;10.550;2023-03-11T10:10:55;99233.13;;;32.11;26.84
32237;BME280;18726;44.732;10.550;2023-03-11T10:17:56;99229.78;;;31.45;27.46
32237;BME280;18726;44.732;10.550;2023-03-11T10:24:34;99227.97;;;30.47;27.80
32237;BME280;18726;44.732;10.550;2023-03-11T10:30:57;99250.47;;;31.18;28.47
32237;BME280;18726;44.732;10.550;2023-03-11T10:34:08;99253.94;;;31.24;27.74
32237;BME280;18726;44.732;10.550;2023-03-11T10:37:17;99240.81;;;31.08;27.71
32237;BME280;18726;44.732;10.550;2023-03-11T10:40:30;99244.75;;;30.94;29.09
32237;BME280;18726;44.732;10.550;2023-03-11T10:43:42;99254.88;;;31.02;27.71
32237;BME280;18726;44.732;10.550;2023-03-11T10:46:47;99240.88;;;30.97;29.03
32237;BME280;18726;44.732;10.550;2023-03-11T10:49:50;99250.63;;;30.90;27.99
32237;BME280;18726;44.732;10.550;2023-03-11T10:53:08;99245.41;;;30.29;28.27
32237;BME280;18726;44.732;10.550;2023-03-11T10:59:29;99256.31;;;29.52;30.77
32237;BME280;18726;44.732;10.550;2023-03-11T11:02:40;99257.00;;;29.75;30.74
32237;BME280;18726;44.732;10.550;2023-03-11T11:06:05;99260.88;;;29.49;32.83
32237;BME280;18726;44.732;10.550;2023-03-11T11:09:16;99263.44;;;29.36;29.52
32237;BME280;18726;44.732;10.550;2023-03-11T11:12:21;99252.50;;;29.33;31.11
32237;BME280;18726;44.732;10.550;2023-03-11T11:18:35;99252.47;;;29.61;28.94
32237;BME280;18726;44.732;10.550;2023-03-11T11:21:46;99251.22;;;29.50;29.42
32237;BME280;18726;44.732;10.550;2023-03-11T11:24:54;99258.59;;;29.03;27.74
32237;BME280;18726;44.732;10.550;2023-03-11T11:28:02;99241.31;;;28.99;29.71
32237;BME280;18726;44.732;10.550;2023-03-11T11:31:18;99230.63;;;28.98;29.99
32237;BME280;18726;44.732;10.550;2023-03-11T11:37:30;99219.72;;;29.11;30.85
32237;BME280;18726;44.732;10.550;2023-03-11T11:40:34;99235.47;;;28.92;30.48
32237;BME280;18726;44.732;10.550;2023-03-11T11:46:52;99238.78;;;28.84;31.41
32237;BME280;18726;44.732;10.550;2023-03-11T11:50:02;99232.16;;;28.82;30.54
32237;BME280;18726;44.732;10.550;2023-03-11T11:56:29;99220.94;;;28.65;31.44
32237;BME280;18726;44.732;10.550;2023-03-11T11:59:33;99213.06;;;28.58;30.55
32237;BME280;18726;44.732;10.550;2023-03-11T12:05:56;99211.47;;;28.35;31.91
32237;BME280;18726;44.732;10.550;2023-03-11T12:09:16;99208.22;;;27.82;30.92
32237;BME280;18726;44.732;10.550;2023-03-11T12:15:56;99199.94;;;27.14;31.35
32237;BME280;18726;44.732;10.550;2023-03-11T12:28:39;99193.47;;;26.97;32.93
32237;BME280;18726;44.732;10.550;2023-03-11T12:31:44;99190.06;;;26.87;34.26
32237;BME280;18726;44.732;10.550;2023-03-11T12:34:49;99195.34;;;26.79;30.53
32237;BME280;18726;44.732;10.550;2023-03-11T12:44:20;99191.03;;;26.52;30.56
32237;BME280;18726;44.732;10.550;2023-03-11T12:47:25;99198.28;;;26.44;33.78
32237;BME280;18726;44.732;10.550;2023-03-11T12:50:38;99199.63;;;26.49;31.71
32237;BME280;18726;44.732;10.550;2023-03-11T13:03:33;99206.88;;;26.00;30.87
32237;BME280;18726;44.732;10.550;2023-03-11T13:06:44;99193.69;;;25.95;33.14
32237;BME280;18726;44.732;10.550;2023-03-11T13:10:10;99202.56;;;25.79;31.87
32237;BME280;18726;44.732;10.550;2023-03-11T13:16:34;99198.63;;;25.50;31.81
32237;BME280;18726;44.732;10.550;2023-03-11T13:19:45;99201.28;;;25.39;32.66
32237;BME280;18726;44.732;10.550;2023-03-11T13:35:32;99197.31;;;25.11;34.15
32237;BME280;18726;44.732;10.550;2023-03-11T13:41:55;99184.09;;;25.06;33.25
32237;BME280;18726;44.732;10.550;2023-03-11T13:44:58;99180.63;;;25.11;34.86
32237;BME280;18726;44.732;10.550;2023-03-11T13:48:06;99188.84;;;24.90;34.16
32237;BME280;18726;44.732;10.550;2023-03-11T13:51:53;99192.81;;;24.99;34.67
32237;BME280;18726;44.732;10.550;2023-03-11T13:54:47;99187.31;;;24.89;35.54
32237;BME280;18726;44.732;10.550;2023-03-11T13:57:53;99190.22;;;24.80;35.33
32237;BME280;18726;44.732;10.550;2023-03-11T14:00:58;99183.91;;;24.80;35.33
32237;BME280;18726;44.732;10.550;2023-03-11T14:04:02;99200.56;;;24.65;33.72
32237;BME280;18726;44.732;10.550;2023-03-11T14:07:13;99190.22;;;24.51;34.07
32237;BME280;18726;44.732;10.550;2023-03-11T14:13:21;99200.16;;;24.43;35.71
32237;BME280;18726;44.732;10.550;2023-03-11T14:19:31;99204.47;;;24.44;34.63
32237;BME280;18726;44.732;10.550;2023-03-11T14:22:35;99205.72;;;24.43;34.37
32237;BME280;18726;44.732;10.550;2023-03-11T14:25:38;99204.16;;;24.27;33.18
32237;BME280;18726;44.732;10.550;2023-03-11T14:28:44;99203.56;;;24.23;34.77
32237;BME280;18726;44.732;10.550;2023-03-11T14:31:49;99203.16;;;24.15;34.92
32237;BME280;18726;44.732;10.550;2023-03-11T14:34:52;99197.31;;;24.13;36.30
32237;BME280;18726;44.732;10.550;2023-03-11T14:37:55;99209.81;;;23.94;35.22
32237;BME280;18726;44.732;10.550;2023-03-11T14:41:00;99220.66;;;23.83;34.63
32237;BME280;18726;44.732;10.550;2023-03-11T14:44:05;99222.59;;;23.92;35.47
32237;BME280;18726;44.732;10.550;2023-03-11T14:50:29;99223.28;;;24.01;35.67
32237;BME280;18726;44.732;10.550;2023-03-11T14:53:41;99224.44;;;23.95;35.59
32237;BME280;18726;44.732;10.550;2023-03-11T14:56:48;99225.84;;;23.90;37.55
32237;BME280;18726;44.732;10.550;2023-03-11T14:59:53;99225.13;;;23.80;34.27
32237;BME280;18726;44.732;10.550;2023-03-11T15:06:19;99231.88;;;23.65;35.40
32237;BME280;18726;44.732;10.550;2023-03-11T15:09:25;99227.91;;;23.56;37.47
32237;BME280;18726;44.732;10.550;2023-03-11T15:12:34;99226.66;;;23.58;36.73
32237;BME280;18726;44.732;10.550;2023-03-11T15:15:39;99227.44;;;23.58;36.56
32237;BME280;18726;44.732;10.550;2023-03-11T15:18:43;99243.59;;;23.50;38.43
32237;BME280;18726;44.732;10.550;2023-03-11T15:21:47;99232.44;;;23.36;36.76
32237;BME280;18726;44.732;10.550;2023-03-11T15:24:52;99239.69;;;23.33;37.21
32237;BME280;18726;44.732;10.550;2023-03-11T15:27:57;99237.28;;;23.17;38.22
32237;BME280;18726;44.732;10.550;2023-03-11T15:34:28;99249.28;;;23.14;38.17
32237;BME280;18726;44.732;10.550;2023-03-11T15:37:32;99239.84;;;23.30;38.76
32237;BME280;18726;44.732;10.550;2023-03-11T15:40:36;99247.88;;;23.28;38.62
32237;BME280;18726;44.732;10.550;2023-03-11T15:43:44;99245.28;;;23.15;38.67
32237;BME280;18726;44.732;10.550;2023-03-11T15:46:49;99241.34;;;22.98;37.34
32237;BME280;18726;44.732;10.550;2023-03-11T15:49:52;99251.84;;;22.75;38.36
32237;BME280;18726;44.732;10.550;2023-03-11T15:52:55;99242.94;;;22.62;38.83
32237;BME280;18726;44.732;10.550;2023-03-11T15:56:05;99240.47;;;22.55;39.18
32237;BME280;18726;44.732;10.550;2023-03-11T15:59:14;99245.88;;;22.49;39.42
32237;BME280;18726;44.732;10.550;2023-03-11T16:02:22;99239.56;;;22.49;39.77
32237;BME280;18726;44.732;10.550;2023-03-11T16:05:26;99241.09;;;22.50;40.37
32237;BME280;18726;44.732;10.550;2023-03-11T16:08:30;99252.34;;;22.46;40.54
32237;BME280;18726;44.732;10.550;2023-03-11T16:11:33;99251.41;;;22.40;41.10
32237;BME280;18726;44.732;10.550;2023-03-11T16:14:37;99251.25;;;22.35;41.99
32237;BME280;18726;44.732;10.550;2023-03-11T16:17:40;99253.41;;;22.31;42.31
32237;BME280;18726;44.732;10.550;2023-03-11T16:20:45;99256.47;;;22.23;43.19
32237;BME280;18726;44.732;10.550;2023-03-11T16:23:50;99261.56;;;22.16;41.87
32237;BME280;18726;44.732;10.550;2023-03-11T16:26:53;99269.06;;;22.06;43.07
32237;BME280;18726;44.732;10.550;2023-03-11T16:29:56;99268.69;;;21.95;43.56
32237;BME280;18726;44.732;10.550;2023-03-11T16:32:59;99269.91;;;21.85;44.11
32237;BME280;18726;44.732;10.550;2023-03-11T16:36:03;99283.06;;;21.72;44.07
32237;BME280;18726;44.732;10.550;2023-03-11T16:39:06;99291.97;;;21.67;44.26
32237;BME280;18726;44.732;10.550;2023-03-11T16:42:10;99288.69;;;21.50;46.55
32237;BME280;18726;44.732;10.550;2023-03-11T16:45:14;99296.47;;;21.33;47.62
32237;BME280;18726;44.732;10.550;2023-03-11T16:48:22;99295.41;;;21.18;48.70
32237;BME280;18726;44.732;10.550;2023-03-11T16:51:25;99310.84;;;21.06;48.55
32237;BME280;18726;44.732;10.550;2023-03-11T16:54:29;99317.22;;;20.94;48.81
32237;BME280;18726;44.732;10.550;2023-03-11T16:57:32;99322.78;;;20.81;48.13
32237;BME280;18726;44.732;10.550;2023-03-11T17:00:36;99327.94;;;20.70;52.27
32237;BME280;18726;44.732;10.550;2023-03-11T17:03:39;99325.31;;;20.54;51.77
32237;BME280;18726;44.732;10.550;2023-03-11T17:06:45;99339.94;;;20.42;51.09
32237;BME280;18726;44.732;10.550;2023-03-11T17:09:48;99346.56;;;20.32;56.88
32237;BME280;18726;44.732;10.550;2023-03-11T17:12:52;99341.19;;;20.15;54.21
32237;BME280;18726;44.732;10.550;2023-03-11T17:15:59;99345.28;;;19.98;51.98
32237;BME280;18726;44.732;10.550;2023-03-11T17:19:03;99345.84;;;19.80;53.98
32237;BME280;18726;44.732;10.550;2023-03-11T17:22:06;99352.13;;;19.68;55.59
32237;BME280;18726;44.732;10.550;2023-03-11T17:25:10;99355.78;;;19.52;52.55
32237;BME280;18726;44.732;10.550;2023-03-11T17:28:13;99358.03;;;19.41;57.82
32237;BME280;18726;44.732;10.550;2023-03-11T17:31:16;99369.56;;;19.36;62.43
32237;BME280;18726;44.732;10.550;2023-03-11T17:34:20;99378.94;;;19.26;62.33
32237;BME280;18726;44.732;10.550;2023-03-11T17:37:23;99392.75;;;19.10;61.86
32237;BME280;18726;44.732;10.550;2023-03-11T17:40:26;99398.66;;;18.96;63.98
32237;BME280;18726;44.732;10.550;2023-03-11T17:43:32;99401.59;;;18.88;62.81
32237;BME280;18726;44.732;10.550;2023-03-11T17:46:36;99405.22;;;18.85;71.68
32237;BME280;18726;44.732;10.550;2023-03-11T17:49:41;99417.06;;;18.82;69.52
32237;BME280;18726;44.732;10.550;2023-03-11T17:52:45;99424.69;;;18.62;62.46
32237;BME280;18726;44.732;10.550;2023-03-11T17:55:48;99438.41;;;18.30;62.49
32237;BME280;18726;44.732;10.550;2023-03-11T17:58:53;99434.06;;;17.96;63.69
32237;BME280;18726;44.732;10.550;2023-03-11T18:01:56;99433.53;;;17.85;65.97